Frio — WDI7439 — position and weather

sailwx.info

Track history (hours):
 
Tides and Currents Weather Stations Pressure Air Temp Water Temp Dewpoint Dewpoint Depression Visibility Wind Speed Wind Dir Waves Ship Positions

Frio

Owner: Kirby Inland Marine LP, Houston, TX. More information available from US FCC via Universal Licensing System and Coast Guard Vessel Documentation Center.

Last reported at 2018-Feb-19 18:37 UTC. Time now 2018-Feb-24 23:31 UTC.
Position N 27°50' W 097°06'.

Length 118 m; draft 2.9 m.

Type: . MMSI: 367728740.

Date/timePositionNaut miles runAvg speedWind from/ knotsBaromVisibWave heightAir tempDewpointWater temp
2018-Feb-19 18:37N 27°50' W 097°06'3 5.5
2018-Feb-19 18:09N 27°51' W 097°03'7 5.9
2018-Feb-19 16:56N 27°59' W 097°03'3 6.0
2018-Feb-19 16:26N 28°01' W 097°01'3 6.0
2018-Feb-19 16:00N 28°03' W 096°59'3 5.2
2018-Feb-19 15:25N 28°05' W 096°57'5 5.0
2018-Feb-19 14:25N 28°09' W 096°54'13 1.0
2018-Feb-19 00:46N 28°18' W 096°42'2 5.6
2018-Feb-19 00:28N 28°19' W 096°40'0 1.0
2018-Feb-18 23:58N 28°19' W 096°40'2 2.2
2018-Feb-18 23:07N 28°20' W 096°38'4 4.7
2018-Feb-18 22:16N 28°22' W 096°34'3 4.8
2018-Feb-18 21:35N 28°24' W 096°31'1 5.1
2018-Feb-18 21:21N 28°24' W 096°30'24 1.5
2018-Feb-18 05:07N 28°37' W 096°07'0 0.0
2018-Feb-18 04:55N 28°37' W 096°07'43 0.9
2018-Feb-16 04:52N 28°54' W 095°22'0 0.0
2018-Feb-16 04:28N 28°54' W 095°22'0 0.0
2018-Feb-16 04:00N 28°54' W 095°22'0 0.0
2018-Feb-16 03:25N 28°54' W 095°22'0 0.0
2018-Feb-16 03:01N 28°54' W 095°22'0 0.0
2018-Feb-16 02:29N 28°54' W 095°22'0 0.0
2018-Feb-16 01:34N 28°54' W 095°22'0 0.0
2018-Feb-16 01:27N 28°54' W 095°22'0 0.2
2018-Feb-16 00:49N 28°54' W 095°22'2 3.7
2018-Feb-16 00:11N 28°55' W 095°20'1 5.9
2018-Feb-15 23:56N 28°56' W 095°19'5 3.3
2018-Feb-15 22:27N 28°60' W 095°15'3 4.4
2018-Feb-15 21:42N 29°03' W 095°13'4 4.5
2018-Feb-15 20:54N 29°06' W 095°12'3 4.9
2018-Feb-15 20:22N 29°08' W 095°10'9 3.2
2018-Feb-15 17:34N 29°14' W 095°02'3 0.7
2018-Feb-15 12:21N 29°16' W 094°59'0 0.0
2018-Feb-15 11:58N 29°16' W 094°59'0 0.0
2018-Feb-15 10:32N 29°16' W 094°59'0 0.0
2018-Feb-15 10:26N 29°16' W 094°59'0 0.0
2018-Feb-15 10:00N 29°16' W 094°59'0 0.0
2018-Feb-15 09:28N 29°16' W 094°59'0 0.0
2018-Feb-15 08:53N 29°16' W 094°59'0 0.0
2018-Feb-15 08:30N 29°16' W 094°59'0 0.0
2018-Feb-15 07:59N 29°16' W 094°59'0 0.0
2018-Feb-15 07:31N 29°16' W 094°59'0 0.0
2018-Feb-15 07:01N 29°16' W 094°59'0 0.0
2018-Feb-15 06:29N 29°16' W 094°59'0 0.0
2018-Feb-15 06:01N 29°16' W 094°59'0 0.0
2018-Feb-15 05:26N 29°16' W 094°59'0 0.0
2018-Feb-15 04:59N 29°16' W 094°59'0 0.0
2018-Feb-15 04:30N 29°16' W 094°59'0 0.0
2018-Feb-15 04:01N 29°16' W 094°59'0 0.0
2018-Feb-15 03:30N 29°16' W 094°59'0 0.0
2018-Feb-15 02:59N 29°16' W 094°59'0 0.0
2018-Feb-15 02:26N 29°16' W 094°59'0 0.0
2018-Feb-15 01:52N 29°16' W 094°59'0 0.0
2018-Feb-15 01:09N 29°16' W 094°59'0 0.0
2018-Feb-15 00:58N 29°16' W 094°59'0 0.0
2018-Feb-15 00:28N 29°16' W 094°59'5 3.7
2018-Feb-14 23:06N 29°17' W 094°53'1 6.0
2018-Feb-14 22:54N 29°18' W 094°53'3 4.7
2018-Feb-14 22:17N 29°20' W 094°50'2 5.6
2018-Feb-14 21:52N 29°22' W 094°48'2 6.1
2018-Feb-14 21:28N 29°24' W 094°49'5 8.3
2018-Feb-14 20:49N 29°29' W 094°52'3 8.6
2018-Feb-14 20:28N 29°32' W 094°54'4 8.6
2018-Feb-14 20:00N 29°35' W 094°56'4 8.5
2018-Feb-14 19:30N 29°39' W 094°58'4 8.8
2018-Feb-14 19:00N 29°43' W 095°01'5 6.3
2018-Feb-14 18:15N 29°46' W 095°05'2 1.3
2018-Feb-14 17:05N 29°47' W 095°04'  
2018-Feb-11 12:46N 29°43' W 095°01'1 4.3
2018-Feb-11 12:27N 29°42' W 095°00'2 4.5
2018-Feb-11 11:58N 29°40' W 094°59'3 5.7
2018-Feb-11 11:30N 29°38' W 094°58'3 6.0
2018-Feb-11 11:00N 29°35' W 094°56'  
Track history (hours):
 
Tides and Currents Weather Stations Pressure Air Temp Water Temp Dewpoint Dewpoint Depression Visibility Wind Speed Wind Dir Waves Ship Positions

Frio

Owner: Kirby Inland Marine LP, Houston, TX. More information available from US FCC via Universal Licensing System and Coast Guard Vessel Documentation Center.

Last reported at 2018-Feb-19 18:37 UTC. Time now 2018-Feb-24 23:31 UTC.
Position N 27°50' W 097°06'.

Length 118 m; draft 2.9 m.

Type: . MMSI: 367728740.

Date/timePositionNaut miles runAvg speedWind from/ knotsBaromVisibWave heightAir tempDewpointWater temp
2018-Feb-19 18:37N 27°50' W 097°06'3 5.5
2018-Feb-19 18:09N 27°51' W 097°03'7 5.9
2018-Feb-19 16:56N 27°59' W 097°03'3 6.0
2018-Feb-19 16:26N 28°01' W 097°01'3 6.0
2018-Feb-19 16:00N 28°03' W 096°59'3 5.2
2018-Feb-19 15:25N 28°05' W 096°57'5 5.0
2018-Feb-19 14:25N 28°09' W 096°54'13 1.0
2018-Feb-19 00:46N 28°18' W 096°42'2 5.6
2018-Feb-19 00:28N 28°19' W 096°40'0 1.0
2018-Feb-18 23:58N 28°19' W 096°40'2 2.2
2018-Feb-18 23:07N 28°20' W 096°38'4 4.7
2018-Feb-18 22:16N 28°22' W 096°34'3 4.8
2018-Feb-18 21:35N 28°24' W 096°31'1 5.1
2018-Feb-18 21:21N 28°24' W 096°30'24 1.5
2018-Feb-18 05:07N 28°37' W 096°07'0 0.0
2018-Feb-18 04:55N 28°37' W 096°07'43 0.9
2018-Feb-16 04:52N 28°54' W 095°22'0 0.0
2018-Feb-16 04:28N 28°54' W 095°22'0 0.0
2018-Feb-16 04:00N 28°54' W 095°22'0 0.0
2018-Feb-16 03:25N 28°54' W 095°22'0 0.0
2018-Feb-16 03:01N 28°54' W 095°22'0 0.0
2018-Feb-16 02:29N 28°54' W 095°22'0 0.0
2018-Feb-16 01:34N 28°54' W 095°22'0 0.0
2018-Feb-16 01:27N 28°54' W 095°22'0 0.2
2018-Feb-16 00:49N 28°54' W 095°22'2 3.7
2018-Feb-16 00:11N 28°55' W 095°20'1 5.9
2018-Feb-15 23:56N 28°56' W 095°19'5 3.3
2018-Feb-15 22:27N 28°60' W 095°15'3 4.4
2018-Feb-15 21:42N 29°03' W 095°13'4 4.5
2018-Feb-15 20:54N 29°06' W 095°12'3 4.9
2018-Feb-15 20:22N 29°08' W 095°10'9 3.2
2018-Feb-15 17:34N 29°14' W 095°02'3 0.7
2018-Feb-15 12:21N 29°16' W 094°59'0 0.0
2018-Feb-15 11:58N 29°16' W 094°59'0 0.0
2018-Feb-15 10:32N 29°16' W 094°59'0 0.0
2018-Feb-15 10:26N 29°16' W 094°59'0 0.0
2018-Feb-15 10:00N 29°16' W 094°59'0 0.0
2018-Feb-15 09:28N 29°16' W 094°59'0 0.0
2018-Feb-15 08:53N 29°16' W 094°59'0 0.0
2018-Feb-15 08:30N 29°16' W 094°59'0 0.0
2018-Feb-15 07:59N 29°16' W 094°59'0 0.0
2018-Feb-15 07:31N 29°16' W 094°59'0 0.0
2018-Feb-15 07:01N 29°16' W 094°59'0 0.0
2018-Feb-15 06:29N 29°16' W 094°59'0 0.0
2018-Feb-15 06:01N 29°16' W 094°59'0 0.0
2018-Feb-15 05:26N 29°16' W 094°59'0 0.0
2018-Feb-15 04:59N 29°16' W 094°59'0 0.0
2018-Feb-15 04:30N 29°16' W 094°59'0 0.0
2018-Feb-15 04:01N 29°16' W 094°59'0 0.0
2018-Feb-15 03:30N 29°16' W 094°59'0 0.0
2018-Feb-15 02:59N 29°16' W 094°59'0 0.0
2018-Feb-15 02:26N 29°16' W 094°59'0 0.0
2018-Feb-15 01:52N 29°16' W 094°59'0 0.0
2018-Feb-15 01:09N 29°16' W 094°59'0 0.0
2018-Feb-15 00:58N 29°16' W 094°59'0 0.0
2018-Feb-15 00:28N 29°16' W 094°59'5 3.7
2018-Feb-14 23:06N 29°17' W 094°53'1 6.0
2018-Feb-14 22:54N 29°18' W 094°53'3 4.7
2018-Feb-14 22:17N 29°20' W 094°50'2 5.6
2018-Feb-14 21:52N 29°22' W 094°48'2 6.1
2018-Feb-14 21:28N 29°24' W 094°49'5 8.3
2018-Feb-14 20:49N 29°29' W 094°52'3 8.6
2018-Feb-14 20:28N 29°32' W 094°54'4 8.6
2018-Feb-14 20:00N 29°35' W 094°56'4 8.5
2018-Feb-14 19:30N 29°39' W 094°58'4 8.8
2018-Feb-14 19:00N 29°43' W 095°01'5 6.3
2018-Feb-14 18:15N 29°46' W 095°05'2 1.3
2018-Feb-14 17:05N 29°47' W 095°04'  
2018-Feb-11 12:46N 29°43' W 095°01'1 4.3
2018-Feb-11 12:27N 29°42' W 095°00'2 4.5
2018-Feb-11 11:58N 29°40' W 094°59'3 5.7
2018-Feb-11 11:30N 29°38' W 094°58'3 6.0
2018-Feb-11 11:00N 29°35' W 094°56'  

Dump ship's entire track history